createdAt,value
2018-08-22T00:01:55.425Z,20.60
2018-08-22T00:04:23.900Z,20.60
2018-08-22T00:06:52.420Z,20.60
2018-08-22T00:09:20.838Z,20.60
2018-08-22T00:11:49.270Z,20.50
2018-08-22T00:14:17.739Z,20.50
2018-08-22T00:16:46.132Z,20.40
2018-08-22T00:19:14.800Z,20.40
2018-08-22T00:21:43.268Z,20.40
2018-08-22T00:24:11.672Z,20.40
2018-08-22T00:26:40.113Z,20.40
2018-08-22T00:29:08.589Z,20.40
2018-08-22T00:31:36.975Z,20.30
2018-08-22T00:34:05.437Z,20.30
2018-08-22T00:36:33.868Z,20.30
2018-08-22T00:39:02.269Z,20.30
2018-08-22T00:41:30.688Z,20.30
2018-08-22T00:43:59.097Z,20.20
2018-08-22T00:46:27.517Z,20.20
2018-08-22T00:48:55.947Z,20.20
2018-08-22T00:51:24.407Z,20.20
2018-08-22T00:53:52.860Z,20.20
2018-08-22T00:56:21.360Z,20.10
2018-08-22T00:58:49.765Z,20.10
2018-08-22T01:01:18.168Z,20.10
2018-08-22T01:03:46.685Z,20.00
2018-08-22T01:06:15.100Z,20.00
2018-08-22T01:08:43.539Z,20.00
2018-08-22T01:11:11.976Z,19.90
2018-08-22T01:13:40.533Z,19.90
2018-08-22T01:16:08.936Z,19.80
2018-08-22T01:18:37.322Z,19.80
2018-08-22T01:21:06.246Z,19.70
2018-08-22T01:23:34.698Z,19.70
2018-08-22T01:26:03.120Z,19.70
2018-08-22T01:28:31.564Z,19.70
2018-08-22T01:30:59.967Z,19.70
2018-08-22T01:33:28.414Z,19.60
2018-08-22T01:35:56.792Z,19.60
2018-08-22T01:38:25.203Z,19.60
2018-08-22T01:40:53.633Z,19.60
2018-08-22T01:43:22.343Z,19.50
2018-08-22T01:45:50.737Z,19.50
2018-08-22T01:48:19.176Z,19.50
2018-08-22T01:50:47.576Z,19.50
2018-08-22T01:53:15.981Z,19.50
2018-08-22T01:55:44.501Z,19.50
2018-08-22T01:58:12.865Z,19.50
2018-08-22T02:00:41.323Z,19.50
2018-08-22T02:03:10.088Z,19.40
2018-08-22T02:05:38.617Z,19.40
2018-08-22T02:08:07.009Z,19.40
2018-08-22T02:10:35.434Z,19.40
2018-08-22T02:13:03.847Z,19.30
2018-08-22T02:15:32.261Z,19.30
2018-08-22T02:18:00.715Z,19.30
2018-08-22T02:20:29.152Z,19.30
2018-08-22T02:22:57.830Z,19.30
2018-08-22T02:25:26.248Z,19.30
2018-08-22T02:27:54.653Z,19.30
2018-08-22T02:30:23.108Z,19.30
2018-08-22T02:32:51.509Z,19.30
2018-08-22T02:35:19.942Z,19.30
2018-08-22T02:37:48.338Z,19.30
2018-08-22T02:40:16.754Z,19.30
2018-08-22T02:42:45.222Z,19.30
2018-08-22T02:45:13.689Z,19.20
2018-08-22T02:47:42.089Z,19.20
2018-08-22T02:50:10.510Z,19.20
2018-08-22T02:52:38.924Z,19.20
2018-08-22T02:55:07.344Z,19.20
2018-08-22T02:57:35.764Z,19.20
2018-08-22T03:00:04.255Z,19.20
2018-08-22T03:02:32.663Z,19.20
2018-08-22T03:05:01.095Z,19.10
2018-08-22T03:07:29.489Z,19.10
2018-08-22T03:09:57.892Z,19.10
2018-08-22T03:12:26.311Z,19.10
2018-08-22T03:14:54.744Z,19.10
2018-08-22T03:17:23.177Z,19.10
2018-08-22T03:19:51.605Z,19.10
2018-08-22T03:22:19.983Z,19.10
2018-08-22T03:24:48.364Z,19.10
2018-08-22T03:27:16.751Z,19.10
2018-08-22T03:29:45.155Z,19.10
2018-08-22T03:32:13.534Z,19.10
2018-08-22T03:34:41.956Z,19.10
2018-08-22T03:37:10.376Z,19.00
2018-08-22T03:39:38.789Z,19.00
2018-08-22T03:42:07.424Z,19.00
2018-08-22T03:44:35.919Z,19.00
2018-08-22T03:47:04.350Z,19.00
2018-08-22T03:49:32.757Z,18.90
2018-08-22T03:52:01.164Z,18.80
2018-08-22T03:54:29.701Z,18.80
2018-08-22T03:56:58.084Z,18.70
2018-08-22T03:59:26.498Z,18.70
2018-08-22T04:01:54.880Z,18.60
2018-08-22T04:04:23.293Z,18.60
2018-08-22T04:06:51.665Z,18.60
2018-08-22T04:09:20.060Z,18.60
2018-08-22T04:11:48.581Z,18.50
2018-08-22T04:14:17.242Z,18.50
2018-08-22T04:16:45.619Z,18.50
2018-08-22T04:19:14.029Z,18.50
2018-08-22T04:21:42.434Z,18.50
2018-08-22T04:24:10.845Z,18.50
2018-08-22T04:26:39.235Z,18.40
2018-08-22T04:29:07.676Z,18.40
2018-08-22T04:31:36.105Z,18.30
2018-08-22T04:34:04.502Z,18.30
2018-08-22T04:36:32.888Z,18.30
2018-08-22T04:39:01.286Z,18.30
2018-08-22T04:41:30.017Z,18.30
2018-08-22T04:43:58.409Z,18.20
2018-08-22T04:46:26.802Z,18.20
2018-08-22T04:48:55.192Z,18.20
2018-08-22T04:51:23.624Z,18.30
2018-08-22T04:53:52.021Z,18.30
2018-08-22T04:56:20.423Z,18.30
2018-08-22T04:58:48.792Z,18.30
2018-08-22T05:01:17.177Z,18.40
2018-08-22T05:03:45.644Z,18.40
2018-08-22T05:06:14.035Z,18.40
2018-08-22T05:08:42.522Z,18.50
2018-08-22T05:11:10.916Z,18.50
2018-08-22T05:13:39.361Z,18.50
2018-08-22T05:16:07.761Z,18.50
2018-08-22T05:18:36.575Z,18.60
2018-08-22T05:21:05.068Z,18.60
2018-08-22T05:23:33.478Z,18.70
2018-08-22T05:26:02.083Z,18.70
2018-08-22T05:28:30.477Z,18.70
2018-08-22T05:30:58.928Z,18.80
2018-08-22T05:33:27.362Z,18.80
2018-08-22T05:35:55.796Z,18.80
2018-08-22T05:38:24.185Z,18.90
2018-08-22T05:40:52.708Z,19.00
2018-08-22T05:43:21.081Z,19.00
2018-08-22T05:45:49.499Z,19.10
2018-08-22T05:48:17.900Z,19.10
2018-08-22T05:50:46.328Z,19.20
2018-08-22T05:53:14.715Z,19.30
2018-08-22T05:55:43.094Z,19.40
2018-08-22T05:58:11.477Z,19.50
2018-08-22T06:00:39.992Z,19.50
2018-08-22T06:03:08.389Z,19.60
2018-08-22T06:05:36.849Z,19.60
2018-08-22T06:08:05.269Z,19.80
2018-08-22T06:10:33.648Z,19.90
2018-08-22T06:13:02.124Z,20.00
2018-08-22T06:15:30.538Z,20.00
2018-08-22T06:17:58.975Z,20.10
2018-08-22T06:20:27.435Z,20.20
2018-08-22T06:22:55.834Z,20.30
2018-08-22T06:25:24.231Z,20.40
2018-08-22T06:27:52.825Z,20.60
2018-08-22T06:30:21.255Z,20.80
2018-08-22T06:32:49.660Z,20.90
2018-08-22T06:35:18.107Z,21.00
2018-08-22T06:37:46.539Z,21.20
2018-08-22T06:40:14.909Z,21.20
2018-08-22T06:42:43.302Z,21.40
2018-08-22T06:45:11.751Z,21.50
2018-08-22T06:47:40.164Z,21.60
2018-08-22T06:50:08.635Z,21.70
2018-08-22T06:52:36.996Z,21.90
2018-08-22T06:55:06.064Z,22.10
2018-08-22T06:57:34.471Z,22.30
2018-08-22T07:00:02.938Z,22.50
2018-08-22T07:02:31.426Z,22.70
2018-08-22T07:04:59.883Z,22.80
2018-08-22T07:07:28.280Z,22.80
2018-08-22T07:09:56.672Z,22.80
2018-08-22T07:12:25.058Z,22.90
2018-08-22T07:14:53.547Z,22.80
2018-08-22T07:17:21.922Z,23.00
2018-08-22T07:19:50.376Z,23.30
2018-08-22T07:22:19.117Z,23.40
2018-08-22T07:24:47.570Z,23.30
2018-08-22T07:27:17.192Z,23.60
2018-08-22T07:29:45.734Z,23.50
2018-08-22T07:32:14.101Z,23.60
2018-08-22T07:34:42.483Z,23.70
2018-08-22T07:37:10.896Z,23.80
2018-08-22T07:39:39.464Z,23.80
2018-08-22T07:42:07.974Z,24.00
2018-08-22T07:44:36.500Z,24.00
2018-08-22T07:47:05.241Z,24.00
2018-08-22T07:49:33.600Z,24.20
2018-08-22T07:52:02.016Z,24.20
2018-08-22T07:54:34.633Z,24.20
2018-08-22T07:57:03.157Z,24.20
2018-08-22T07:59:31.608Z,24.40
2018-08-22T08:02:00.152Z,24.40
2018-08-22T08:04:28.488Z,24.40
2018-08-22T08:06:56.889Z,24.50
2018-08-22T08:09:25.257Z,24.60
2018-08-22T08:11:53.708Z,24.70
2018-08-22T08:14:22.136Z,24.80
2018-08-22T08:16:50.620Z,24.60
2018-08-22T08:19:19.090Z,24.80
2018-08-22T08:21:47.638Z,24.90
2018-08-22T08:24:16.030Z,25.20
2018-08-22T08:26:44.436Z,25.20
2018-08-22T08:29:14.149Z,25.10
2018-08-22T08:31:42.603Z,25.00
2018-08-22T08:34:11.020Z,25.00
2018-08-22T08:36:39.400Z,24.90
2018-08-22T08:39:09.397Z,24.90
2018-08-22T08:41:37.804Z,24.90
2018-08-22T08:44:06.383Z,25.00
2018-08-22T08:46:34.809Z,24.90
2018-08-22T08:49:03.643Z,25.10
2018-08-22T08:51:32.136Z,25.00
2018-08-22T08:54:00.606Z,24.90
2018-08-22T08:56:28.996Z,25.10
2018-08-22T08:58:57.394Z,25.30
2018-08-22T09:01:25.808Z,25.30
2018-08-22T09:03:54.500Z,25.10
2018-08-22T09:06:22.855Z,25.10
2018-08-22T09:08:51.286Z,25.20
2018-08-22T09:11:19.697Z,25.40
2018-08-22T09:13:53.259Z,25.40
2018-08-22T09:16:22.344Z,25.40
2018-08-22T09:18:50.744Z,25.40
2018-08-22T09:21:20.086Z,25.30
2018-08-22T09:23:48.461Z,25.20
2018-08-22T09:26:17.042Z,25.40
2018-08-22T09:28:45.799Z,25.30
2018-08-22T09:31:14.355Z,25.50
2018-08-22T09:33:42.891Z,25.40
2018-08-22T09:36:11.293Z,25.40
2018-08-22T09:38:39.754Z,25.50
2018-08-22T09:41:08.192Z,25.70
2018-08-22T09:43:36.604Z,25.80
2018-08-22T09:46:05.053Z,26.00
2018-08-22T09:48:33.509Z,25.80
2018-08-22T09:51:01.961Z,25.90
2018-08-22T09:53:30.901Z,26.10
2018-08-22T09:55:59.340Z,26.00
2018-08-22T09:58:27.743Z,26.10
2018-08-22T10:01:01.851Z,26.20
2018-08-22T10:03:44.596Z,26.20
2018-08-22T10:06:17.539Z,26.40
2018-08-22T10:08:45.937Z,26.40
2018-08-22T10:11:14.515Z,26.20
2018-08-22T10:13:43.129Z,26.50
2018-08-22T10:16:11.804Z,26.60
2018-08-22T10:18:40.210Z,26.70
2018-08-22T10:21:08.624Z,26.50
2018-08-22T10:23:37.072Z,26.60
2018-08-22T10:26:05.462Z,26.80
2018-08-22T10:28:33.903Z,26.80
2018-08-22T10:31:02.297Z,27.00
2018-08-22T10:33:30.776Z,26.70
2018-08-22T10:35:59.217Z,26.70
2018-08-22T10:38:27.680Z,26.80
2018-08-22T10:40:56.348Z,26.90
2018-08-22T10:43:24.757Z,26.90
2018-08-22T10:45:53.168Z,27.10
2018-08-22T10:48:21.592Z,27.00
2018-08-22T10:50:49.981Z,27.10
2018-08-22T10:53:18.421Z,27.30
2018-08-22T10:55:47.028Z,27.30
2018-08-22T10:58:15.458Z,27.20
2018-08-22T11:00:44.364Z,27.30
2018-08-22T11:03:12.840Z,27.20
2018-08-22T11:05:41.356Z,27.00
2018-08-22T11:08:09.793Z,27.10
2018-08-22T11:10:38.252Z,27.30
2018-08-22T11:13:06.699Z,27.40
2018-08-22T11:15:35.149Z,27.60
2018-08-22T11:18:03.529Z,27.60
2018-08-22T11:20:32.700Z,27.20
2018-08-22T11:23:12.997Z,27.10
2018-08-22T11:25:52.841Z,27.10
2018-08-22T11:28:32.480Z,27.50
2018-08-22T11:31:12.396Z,27.80
2018-08-22T11:33:52.357Z,27.80
2018-08-22T11:36:19.641Z,28.00
2018-08-22T11:38:48.125Z,27.80
2018-08-22T11:41:16.574Z,27.60
2018-08-22T11:43:44.962Z,27.70
2018-08-22T11:46:13.400Z,27.90
2018-08-22T11:48:41.869Z,28.00
2018-08-22T11:51:10.424Z,27.90
2018-08-22T11:53:38.825Z,27.70
2018-08-22T11:56:07.359Z,27.80
2018-08-22T11:58:35.688Z,27.90
2018-08-22T12:01:04.392Z,27.90
2018-08-22T12:03:32.935Z,28.10
2018-08-22T12:06:01.500Z,28.20
2018-08-22T12:08:29.934Z,28.20
2018-08-22T12:10:58.310Z,28.20
2018-08-22T12:13:26.733Z,28.20
2018-08-22T12:15:55.161Z,28.30
2018-08-22T12:18:23.607Z,28.30
2018-08-22T12:20:52.028Z,28.40
2018-08-22T12:23:20.449Z,28.60
2018-08-22T12:25:48.887Z,28.60
2018-08-22T12:28:17.292Z,28.70
2018-08-22T12:30:45.690Z,28.80
2018-08-22T12:33:14.093Z,28.80
2018-08-22T12:35:42.508Z,28.90
2018-08-22T12:38:11.142Z,29.00
2018-08-22T12:40:39.524Z,28.90
2018-08-22T12:43:07.927Z,28.80
2018-08-22T12:45:36.327Z,28.80
2018-08-22T12:48:04.879Z,28.90
2018-08-22T12:50:33.372Z,28.70
2018-08-22T12:53:01.782Z,28.90
2018-08-22T12:55:30.209Z,28.90
2018-08-22T12:57:58.934Z,28.90
2018-08-22T13:00:27.377Z,28.80
2018-08-22T13:02:55.856Z,29.10
2018-08-22T13:05:24.288Z,29.00
2018-08-22T13:07:52.717Z,29.10
2018-08-22T13:10:21.151Z,29.20
2018-08-22T13:12:49.543Z,29.10
2018-08-22T13:15:17.936Z,29.10
2018-08-22T13:17:46.440Z,29.30
2018-08-22T13:20:14.864Z,29.20
2018-08-22T13:22:43.318Z,29.10
2018-08-22T13:25:11.777Z,29.30
2018-08-22T13:27:40.208Z,29.20
2018-08-22T13:30:08.685Z,29.10
2018-08-22T13:32:37.065Z,29.00
2018-08-22T13:35:06.116Z,29.00
2018-08-22T13:37:34.539Z,29.00
2018-08-22T13:40:03.051Z,29.10
2018-08-22T13:42:31.450Z,29.00
2018-08-22T13:44:59.896Z,29.10
2018-08-22T13:47:28.351Z,29.00
2018-08-22T13:49:56.780Z,29.00
2018-08-22T13:52:25.263Z,29.00
2018-08-22T13:54:53.712Z,28.90
2018-08-22T13:57:22.396Z,28.90
2018-08-22T13:59:50.816Z,28.90
2018-08-22T14:02:19.261Z,29.10
2018-08-22T14:04:47.647Z,29.10
2018-08-22T14:07:16.141Z,29.10
2018-08-22T14:09:44.573Z,29.10
2018-08-22T14:12:12.964Z,29.10
2018-08-22T14:14:41.520Z,29.10
2018-08-22T14:17:09.941Z,29.10
2018-08-22T14:19:38.391Z,29.10
2018-08-22T14:22:06.896Z,29.20
2018-08-22T14:24:35.366Z,29.20
2018-08-22T14:27:03.868Z,29.30
2018-08-22T14:29:32.276Z,29.40
2018-08-22T14:32:00.694Z,29.30
2018-08-22T14:34:29.224Z,29.30
2018-08-22T14:36:57.756Z,29.30
2018-08-22T14:39:26.380Z,29.30
2018-08-22T14:41:54.713Z,29.30
2018-08-22T14:44:23.128Z,29.30
2018-08-22T14:46:51.555Z,29.40
2018-08-22T14:49:19.999Z,29.30
2018-08-22T14:51:48.397Z,29.30
2018-08-22T14:54:16.859Z,29.20
2018-08-22T14:56:45.260Z,29.10
2018-08-22T14:59:13.731Z,29.20
2018-08-22T15:01:42.132Z,29.20
2018-08-22T15:04:10.569Z,29.30
2018-08-22T15:06:38.990Z,29.20
2018-08-22T15:09:18.073Z,29.20
2018-08-22T15:11:47.864Z,29.20
2018-08-22T15:14:16.393Z,29.10
2018-08-22T15:16:44.877Z,29.10
2018-08-22T15:19:13.308Z,29.10
2018-08-22T15:21:41.781Z,29.20
2018-08-22T15:24:10.233Z,29.20
2018-08-22T15:26:38.708Z,29.10
2018-08-22T15:29:07.145Z,29.10
2018-08-22T15:31:35.605Z,29.10
2018-08-22T15:34:04.092Z,29.10
2018-08-22T15:36:34.769Z,29.10
2018-08-22T15:39:04.080Z,29.10
2018-08-22T15:41:32.610Z,29.00
2018-08-22T15:44:01.044Z,29.00
2018-08-22T15:46:29.758Z,29.10
2018-08-22T15:48:58.285Z,29.10
2018-08-22T15:51:26.813Z,29.00
2018-08-22T15:54:11.163Z,29.00
2018-08-22T15:56:41.056Z,29.00
2018-08-22T15:59:10.460Z,29.00
2018-08-22T16:01:39.521Z,28.90
2018-08-22T16:04:08.683Z,28.90
2018-08-22T16:06:37.194Z,28.90
2018-08-22T16:09:10.503Z,28.90
2018-08-22T16:11:39.005Z,28.90
2018-08-22T16:14:07.560Z,28.90
2018-08-22T16:16:36.345Z,28.80
2018-08-22T16:19:04.901Z,28.70
2018-08-22T16:21:33.429Z,28.60
2018-08-22T16:24:01.903Z,28.70
2018-08-22T16:26:30.313Z,28.80
2018-08-22T16:28:59.932Z,28.80
2018-08-22T16:31:33.837Z,28.60
2018-08-22T16:34:02.249Z,28.60
2018-08-22T16:36:31.494Z,28.70
2018-08-22T16:39:01.206Z,28.60
2018-08-22T16:41:29.652Z,28.70
2018-08-22T16:43:58.160Z,28.50
2018-08-22T16:46:26.641Z,28.40
2018-08-22T16:48:56.043Z,28.30
2018-08-22T16:51:24.760Z,28.30
2018-08-22T16:54:00.355Z,28.40
2018-08-22T16:56:30.494Z,28.30
2018-08-22T16:59:04.290Z,28.30
2018-08-22T17:01:32.668Z,28.20
2018-08-22T17:04:01.133Z,28.20
2018-08-22T17:06:29.564Z,28.20
2018-08-22T17:08:58.543Z,28.10
2018-08-22T17:11:27.147Z,28.10
2018-08-22T17:13:55.576Z,28.00
2018-08-22T17:16:24.928Z,28.00
2018-08-22T17:18:53.614Z,27.90
2018-08-22T17:21:22.720Z,27.90
2018-08-22T17:23:51.593Z,27.70
2018-08-22T17:26:20.897Z,27.60
2018-08-22T17:28:52.346Z,27.60
2018-08-22T17:31:21.888Z,27.50
2018-08-22T17:33:55.303Z,27.50
2018-08-22T17:36:24.812Z,27.40
2018-08-22T17:38:54.980Z,27.40
2018-08-22T17:41:25.033Z,27.30
2018-08-22T17:44:06.326Z,27.40
2018-08-22T17:46:39.984Z,27.30
2018-08-22T17:49:08.588Z,27.20
2018-08-22T17:51:54.317Z,27.10
2018-08-22T17:54:22.749Z,27.00
2018-08-22T17:57:01.101Z,26.90
2018-08-22T17:59:29.618Z,26.90
2018-08-22T18:01:59.222Z,26.80
2018-08-22T18:04:29.780Z,26.70
2018-08-22T18:06:58.209Z,26.50
2018-08-22T18:09:26.626Z,26.50
2018-08-22T18:11:55.032Z,26.40
2018-08-22T18:14:24.034Z,26.40
2018-08-22T18:16:58.152Z,26.30
2018-08-22T18:19:26.755Z,26.30
2018-08-22T18:21:55.412Z,26.20
2018-08-22T18:24:23.834Z,26.10
2018-08-22T18:26:52.290Z,26.10
2018-08-22T18:29:20.909Z,26.00
2018-08-22T18:31:49.713Z,26.00
2018-08-22T18:34:18.157Z,25.90
2018-08-22T18:36:46.575Z,25.90
2018-08-22T18:39:16.097Z,25.90
2018-08-22T18:41:44.580Z,25.90
2018-08-22T18:44:13.116Z,25.80
2018-08-22T18:46:41.548Z,25.80
2018-08-22T18:49:10.217Z,25.70
2018-08-22T18:51:38.644Z,25.70
2018-08-22T18:54:07.455Z,25.60
2018-08-22T18:56:35.840Z,25.50
2018-08-22T18:59:15.609Z,25.50
2018-08-22T19:01:44.094Z,25.40
2018-08-22T19:04:12.530Z,25.20
2018-08-22T19:06:41.052Z,25.20
2018-08-22T19:09:09.649Z,25.20
2018-08-22T19:11:38.078Z,25.10
2018-08-22T19:14:06.618Z,25.00
2018-08-22T19:16:35.068Z,24.90
2018-08-22T19:19:03.508Z,24.90
2018-08-22T19:21:32.012Z,24.90
2018-08-22T19:24:04.971Z,24.80
2018-08-22T19:26:33.652Z,24.90
2018-08-22T19:29:04.394Z,24.90
2018-08-22T19:31:33.011Z,25.10
2018-08-22T19:34:01.465Z,25.10
2018-08-22T19:36:30.328Z,25.00
2018-08-22T19:38:58.897Z,25.00
2018-08-22T19:41:31.807Z,25.00
2018-08-22T19:44:00.233Z,24.90
2018-08-22T19:46:29.078Z,24.90
2018-08-22T19:48:57.597Z,24.90
2018-08-22T19:51:26.383Z,24.90
2018-08-22T19:54:08.115Z,24.90
2018-08-22T19:56:36.768Z,24.80
2018-08-22T19:59:05.809Z,24.70
2018-08-22T20:01:35.916Z,24.60
2018-08-22T20:04:04.449Z,24.50
2018-08-22T20:06:33.099Z,24.50
2018-08-22T20:09:01.781Z,24.50
2018-08-22T20:11:32.702Z,24.50
2018-08-22T20:14:02.750Z,24.40
2018-08-22T20:16:31.207Z,24.30
2018-08-22T20:19:01.033Z,24.20
2018-08-22T20:21:35.024Z,24.20
2018-08-22T20:24:05.324Z,24.10
2018-08-22T20:26:37.165Z,24.00
2018-08-22T20:29:06.146Z,24.00
2018-08-22T20:31:36.144Z,23.90
2018-08-22T20:34:09.010Z,23.90
2018-08-22T20:36:37.871Z,23.90
2018-08-22T20:39:11.208Z,23.90
2018-08-22T20:41:40.437Z,23.80
2018-08-22T20:44:11.745Z,23.80
2018-08-22T20:46:41.850Z,23.90
2018-08-22T20:49:10.608Z,23.80
2018-08-22T20:51:42.578Z,23.80
2018-08-22T20:54:14.108Z,23.80
2018-08-22T20:56:49.116Z,23.80
2018-08-22T20:59:18.831Z,23.70
2018-08-22T21:01:54.320Z,23.70
2018-08-22T21:04:23.028Z,23.70
2018-08-22T21:06:52.257Z,23.60
2018-08-22T21:09:25.117Z,23.60
2018-08-22T21:11:56.687Z,23.50
2018-08-22T21:14:27.865Z,23.50
2018-08-22T21:16:57.631Z,23.50
2018-08-22T21:19:28.260Z,23.50
2018-08-22T21:21:56.759Z,23.50
2018-08-22T21:24:25.435Z,23.50
2018-08-22T21:26:55.743Z,23.50
2018-08-22T21:29:25.583Z,23.40
2018-08-22T21:31:55.421Z,23.50
2018-08-22T21:34:25.645Z,23.50
2018-08-22T21:36:54.103Z,23.40
2018-08-22T21:39:25.962Z,23.40
2018-08-22T21:41:54.545Z,23.30
2018-08-22T21:44:24.803Z,23.30
2018-08-22T21:46:59.708Z,23.20
2018-08-22T21:49:28.668Z,23.20
2018-08-22T21:51:59.590Z,23.10
2018-08-22T21:54:45.419Z,23.10
2018-08-22T21:57:15.153Z,23.00
2018-08-22T21:59:43.592Z,22.90
2018-08-22T22:02:13.230Z,22.90
2018-08-22T22:04:42.936Z,22.80
2018-08-22T22:07:20.461Z,22.80
2018-08-22T22:09:51.977Z,22.80
2018-08-22T22:12:38.220Z,22.80
2018-08-22T22:15:09.529Z,22.70
2018-08-22T22:17:38.007Z,22.60
2018-08-22T22:20:06.474Z,22.60
2018-08-22T22:22:35.177Z,22.50
2018-08-22T22:25:07.557Z,22.50
2018-08-22T22:27:39.306Z,22.40
2018-08-22T22:30:08.031Z,22.40
2018-08-22T22:32:36.456Z,22.40
2018-08-22T22:35:05.673Z,22.40
2018-08-22T22:37:36.064Z,22.40
2018-08-22T22:40:04.728Z,22.40
2018-08-22T22:42:33.196Z,22.40
2018-08-22T22:45:01.621Z,22.50
2018-08-22T22:47:34.000Z,22.40
2018-08-22T22:50:05.484Z,22.40
2018-08-22T22:52:42.707Z,22.30
2018-08-22T22:55:11.745Z,22.20
2018-08-22T22:57:41.472Z,22.20
2018-08-22T23:00:13.417Z,22.20
2018-08-22T23:02:41.913Z,22.30
2018-08-22T23:05:10.342Z,22.20
2018-08-22T23:07:39.709Z,22.10
2018-08-22T23:10:10.898Z,22.10
2018-08-22T23:12:46.384Z,22.10
2018-08-22T23:15:18.443Z,22.10
2018-08-22T23:17:50.595Z,22.10
2018-08-22T23:20:42.920Z,22.10
2018-08-22T23:23:26.272Z,22.00
2018-08-22T23:25:55.724Z,21.90
2018-08-22T23:28:24.139Z,21.90
2018-08-22T23:30:52.561Z,21.90
2018-08-22T23:33:20.998Z,21.90
2018-08-22T23:35:49.408Z,21.90
2018-08-22T23:38:23.334Z,21.80
2018-08-22T23:40:51.726Z,21.80
2018-08-22T23:43:20.116Z,21.70
2018-08-22T23:45:53.869Z,21.70
2018-08-22T23:48:27.687Z,21.60
2018-08-22T23:51:00.029Z,21.60
2018-08-22T23:53:31.105Z,21.50
2018-08-22T23:56:12.086Z,21.50
2018-08-22T23:58:42.061Z,21.50
